Latest Weather Observations for Narrandera Airport

IDN60801

Issued at 8:42 pm EST Wednesday 5 August 2020 (issued every 10 minutes, with the page automatically refreshed every 10 minutes)

About weather observations | Map of weather stations | Latest weather observations for NSW | Other Formats
Station Details ID: 074148 Name: NARRANDERA AIRPORT AWS Lat: -34.70 Lon: 146.51 Height: 145.0 m
Data from the previous 72 hours. | See also: Recent months at Narrandera Airport
Date/Time
EST
Temp
°C
App
Temp
°C
Dew
Point
°C
Rel
Hum
%
Delta-T
°C
Wind Press
QNH
hPa
Press
MSL
hPa
Rain since
9am
mm
Dir  Spd
km/h
Gust
km/h
Spd
kts
Gust
kts
05/08:30pm 2.2 0.2 -0.1 85 0.8 CALM 0 0 0 0 1018.9 1019.1 0.0
05/08:00pm 2.3 0.2 -0.6 81 1.1 CALM 0 0 0 0 1018.9 1019.1 0.0
05/07:30pm 3.5 1.5 0.0 78 1.3 CALM 0 6 0 3 1018.9 1019.1 0.0
05/07:00pm 6.4 3.3 1.3 70 2.0 W 7 9 4 5 1018.6 1018.8 0.0
05/06:30pm 6.7 3.6 0.4 64 2.5 W 6 6 3 3 1018.2 1018.4 0.0
05/06:00pm 8.6 5.4 0.6 57 3.2 SW 7 11 4 6 1017.8 1018.0 0.0
05/05:30pm 9.8 6.7 1.2 55 3.6 WSW 7 11 4 6 1017.5 1017.7 0.0
05/05:00pm 11.0 7.5 1.5 52 4.0 SW 9 13 5 7 1017.5 1017.7 0.0
05/04:30pm 11.6 7.0 1.3 49 4.4 SW 15 20 8 11 1017.2 1017.4 0.0
05/04:00pm 12.1 7.4 1.1 47 4.7 SW 15 20 8 11 1016.9 1017.1 0.0
05/03:30pm 12.2 7.5 1.2 47 4.7 WSW 15 22 8 12 1016.7 1016.9 0.0
05/03:00pm 12.1 7.1 1.1 47 4.7 SW 17 22 9 12 1016.8 1017.0 0.0
05/02:30pm 11.9 6.9 1.5 49 4.4 WSW 17 26 9 14 1017.0 1017.2 0.0
05/02:00pm 12.1 7.6 2.0 50 4.4 WSW 15 24 8 13 1017.1 1017.3 0.0
05/01:30pm 11.6 6.4 2.4 53 4.0 WSW 19 30 10 16 1017.2 1017.4 0.0
05/01:00pm 11.6 6.8 2.6 54 3.9 SW 17 26 9 14 1017.5 1017.7 0.0
05/12:30pm 11.7 6.5 3.7 58 3.6 W 20 32 11 17 1017.7 1017.9 0.0
05/12:00pm 10.5 5.4 3.3 61 3.2 WSW 19 26 10 14 1018.2 1018.4 0.0
05/11:30am 9.2 3.9 2.8 64 2.7 WSW 20 30 11 16 1018.5 1018.7 0.0
05/11:00am 8.8 4.1 3.2 68 2.4 WSW 17 20 9 11 1018.8 1019.0 0.0
05/10:30am 7.9 3.1 2.8 70 2.2 W 17 22 9 12 1018.8 1019.0 0.0
05/10:00am 7.3 2.5 2.4 71 2.0 W 17 22 9 12 1018.7 1018.9 0.0
05/09:30am 5.8 1.2 1.3 73 1.8 W 15 20 8 11 1018.5 1018.7 0.0
05/09:00am 4.8 0.9 1.3 78 1.4 W 11 15 6 8 1018.6 1018.8 0.0
05/08:30am 2.6 -1.7 1.0 89 0.6 NW 13 17 7 9 1018.1 1018.3 0.0
05/08:00am 1.7 -1.5 0.7 93 0.4 WNW 7 9 4 5 1017.9 1018.1 0.0
05/07:30am -0.1 -3.9 -0.9 94 0.3 WNW 9 13 5 7 1017.6 1017.8 0.0
05/07:00am -0.3 -4.3 -2.3 86 0.7 NW 9 15 5 8 1017.5 1017.7 0.0
05/06:30am 1.2 -2.9 -0.3 90 0.5 W 11 17 6 9 1017.4 1017.6 0.0
05/06:00am 1.2 -3.3 -0.1 91 0.5 W 13 15 7 8 1017.1 1017.3 0.0
05/05:30am 1.2 -3.3 -0.4 89 0.6 W 13 17 7 9 1016.9 1017.1 0.0
05/05:00am 1.7 -3.2 -0.2 87 0.7 W 15 20 8 11 1016.7 1016.9 0.0
05/04:30am 2.2 -2.6 0.1 86 0.8 W 15 19 8 10 1016.7 1016.9 0.0
05/04:00am 2.7 -2.1 0.1 83 1.0 W 15 20 8 11 1016.6 1016.8 0.0
05/03:30am 3.1 -2.1 0.0 80 1.2 W 17 24 9 13 1016.6 1016.8 0.0
05/03:00am 3.7 -1.5 0.2 78 1.3 W 17 24 9 13 1016.5 1016.7 0.0
05/02:30am 3.6 -1.2 0.5 80 1.2 W 15 20 8 11 1016.6 1016.8 0.0
05/02:00am 3.4 -1.0 0.5 81 1.1 W 13 19 7 10 1016.8 1017.0 0.0
05/01:30am 3.1 -1.3 0.2 81 1.1 W 13 17 7 9 1017.2 1017.4 0.0
05/01:00am 3.6 -0.5 0.1 78 1.3 WSW 11 17 6 9 1017.3 1017.5 0.0
05/12:30am 3.9 -0.5 0.1 76 1.4 W 13 20 7 11 1017.2 1017.4 0.0
05/12:00am 4.2 -0.3 0.0 74 1.6 W 13 17 7 9 1017.3 1017.5 0.0
 
Date/Time
EST
Temp
°C
App
Temp
°C
Dew
Point
°C
Rel
Hum
%
Delta-T
°C
Wind Press
QNH
hPa
Press
MSL
hPa
Rain since
9am
mm
Dir  Spd
km/h
Gust
km/h
Spd
kts
Gust
kts
04/11:30pm 4.7 -0.1 0.1 72 1.8 WSW 15 22 8 12 1017.3 1017.5 0.0
04/11:00pm 4.9 0.5 0.1 71 1.8 W 13 17 7 9 1017.2 1017.4 0.0
04/10:30pm 4.0 0.0 0.3 77 1.4 W 11 20 6 11 1017.2 1017.4 0.0
04/10:00pm 2.1 -2.1 -0.6 82 1.0 NW 11 13 6 7 1017.0 1017.2 0.0
04/09:30pm 2.4 -1.4 -1.0 78 1.2 WNW 9 11 5 6 1017.0 1017.2 0.0
04/09:00pm 2.1 -1.8 -1.2 79 1.2 NW 9 11 5 6 1016.9 1017.1 0.0
04/08:30pm 2.2 0.0 -1.2 78 1.2 CALM 0 0 0 0 1017.0 1017.2 0.0
04/08:00pm 2.6 0.5 -1.0 77 1.3 CALM 0 0 0 0 1016.8 1017.0 0.0
04/07:30pm 2.9 0.8 -0.5 78 1.3 CALM 0 0 0 0 1016.7 1016.9 0.0
04/07:00pm 3.8 1.7 -0.8 72 1.7 CALM 0 0 0 0 1016.6 1016.8 0.0
04/06:30pm 5.2 3.0 -1.5 62 2.5 CALM 0 0 0 0 1016.3 1016.5 0.0
04/06:00pm 7.3 4.0 -1.6 53 3.4 W 6 9 3 5 1016.1 1016.3 0.0
04/05:30pm 8.8 4.9 -1.6 48 4.0 WSW 9 15 5 8 1016.0 1016.2 0.0
04/05:00pm 10.1 5.5 -1.0 46 4.4 WSW 13 20 7 11 1015.9 1016.1 0.0
04/04:30pm 10.8 6.2 -1.3 43 4.8 WSW 13 22 7 12 1015.7 1015.9 0.0
04/04:00pm 11.1 6.0 -2.3 39 5.2 WSW 15 24 8 13 1015.4 1015.6 0.0
04/03:30pm 11.3 5.3 -2.8 37 5.4 WSW 19 30 10 16 1015.2 1015.4 0.0
04/03:00pm 11.1 4.5 -3.4 36 5.5 WSW 22 35 12 19 1015.3 1015.5 0.0
04/02:30pm 11.8 6.4 -1.7 39 5.4 WSW 17 26 9 14 1015.3 1015.5 0.0
04/02:00pm 11.7 6.3 -1.1 41 5.1 SW 17 24 9 13 1015.0 1015.2 0.0
04/01:30pm 11.1 4.8 -4.1 34 5.7 WSW 20 33 11 18 1015.3 1015.5 0.0
04/01:00pm 10.8 4.8 -1.9 41 5.0 SW 20 30 11 16 1015.5 1015.7 0.0
04/12:30pm 10.9 4.7 0.0 47 4.5 WSW 22 35 12 19 1015.8 1016.0 0.0
04/12:00pm 10.9 5.2 2.7 57 3.6 SW 22 35 12 19 1016.1 1016.3 0.0
04/11:30am 10.2 5.1 3.0 61 3.1 WSW 19 28 10 15 1016.1 1016.3 0.0
04/11:00am 10.2 5.2 3.7 64 2.9 WSW 19 28 10 15 1016.2 1016.4 0.0
04/10:30am 10.1 5.1 3.6 64 2.9 W 19 30 10 16 1016.0 1016.2 0.0
04/10:00am 9.5 3.9 3.7 67 2.5 WSW 22 32 12 17 1016.1 1016.3 0.0
04/09:30am 8.9 4.7 3.9 71 2.2 WSW 15 20 8 11 1016.0 1016.2 0.0
04/09:00am 7.9 3.7 3.6 74 1.9 WSW 15 22 8 12 1015.9 1016.1 0.2
04/08:30am 7.5 3.6 3.4 75 1.8 WSW 13 20 7 11 1015.5 1015.7 0.2
04/08:00am 7.4 4.0 3.8 78 1.6 WSW 11 17 6 9 1015.4 1015.6 0.2
04/07:30am 7.3 4.0 4.4 82 1.3 WSW 11 17 6 9 1015.1 1015.3 0.2
04/07:00am 7.4 3.8 4.9 84 1.1 WSW 13 17 7 9 1014.9 1015.1 0.2
04/06:30am 7.9 3.7 5.5 85 1.1 WSW 17 24 9 13 1014.6 1014.8 0.2
04/06:00am 4.8 3.1 4.2 96 0.3 W 2 9 1 5 1014.3 1014.5 0.2
04/05:30am 4.8 2.3 3.9 94 0.4 W 6 7 3 4 1014.0 1014.2 0.2
04/05:00am 5.3 2.9 4.3 93 0.4 W 6 7 3 4 1013.9 1014.0 0.2
04/04:30am 5.7 4.4 3.9 88 0.8 CALM 0 0 0 0 1013.6 1013.7 0.2
04/04:00am 6.9 5.8 4.9 87 0.9 CALM 0 0 0 0 1013.7 1013.8 0.2
04/03:30am 7.0 5.7 4.3 83 1.2 CALM 0 6 0 3 1013.8 1013.9 0.2
04/03:00am 7.7 5.2 4.8 82 1.3 WNW 7 9 4 5 1013.9 1014.0 0.2
04/02:30am 7.2 4.3 4.9 85 1.0 NW 9 9 5 5 1013.9 1014.0 0.2
04/02:00am 8.2 4.6 4.8 79 1.5 NNW 13 13 7 7 1014.0 1014.2 0.2
04/01:30am 9.9 6.7 4.9 71 2.3 WNW 11 15 6 8 1014.3 1014.5 0.2
04/01:00am 10.7 6.1 5.7 71 2.3 WNW 19 30 10 16 1014.3 1014.5 0.2
04/12:30am 10.0 6.5 5.4 73 2.1 NW 13 17 7 9 1014.0 1014.2 0.2
04/12:00am 10.3 6.7 5.1 70 2.4 NNW 13 20 7 11 1014.0 1014.2 0.2
 
Date/Time
EST
Temp
°C
App
Temp
°C
Dew
Point
°C
Rel
Hum
%
Delta-T
°C
Wind Press
QNH
hPa
Press
MSL
hPa
Rain since
9am
mm
Dir  Spd
km/h
Gust
km/h
Spd
kts
Gust
kts
03/11:30pm 11.2 7.2 5.1 66 2.8 NNW 15 22 8 12 1014.4 1014.6 0.2
03/11:00pm 11.4 7.6 5.9 69 2.6 NNW 15 20 8 11 1014.6 1014.8 0.2
03/10:30pm 11.1 8.2 6.5 73 2.2 NNW 11 19 6 10 1014.9 1015.1 0.2
03/10:00pm 10.8 9.0 5.6 70 2.4 - 4 7 2 4 1014.9 1015.1 0.2
03/09:30pm 12.4 7.7 6.0 65 3.0 N 20 26 11 14 1014.9 1015.1 0.2
03/09:00pm 12.0 8.3 6.5 69 2.6 N 15 19 8 10 1015.1 1015.3 0.2
03/08:30pm 11.6 8.6 7.5 76 2.0 N 13 17 7 9 1015.1 1015.3 0.2
03/08:00pm 9.4 8.5 5.9 79 1.6 CALM 0 4 0 2 1015.2 1015.4 0.2
03/07:30pm 10.2 9.3 6.2 76 1.9 CALM 0 0 0 0 1015.3 1015.5 0.2
03/07:00pm 10.6 7.6 6.0 73 2.1 NNE 11 13 6 7 1015.3 1015.5 0.2
03/06:30pm 11.2 10.3 6.1 71 2.4 CALM 0 0 0 0 1015.6 1015.8 0.2
03/06:00pm 11.9 10.4 6.6 70 2.5 NE 4 7 2 4 1015.5 1015.7 0.2
03/05:30pm 13.8 12.3 6.7 62 3.5 N 4 7 2 4 1015.5 1015.7 0.2
03/05:00pm 15.3 14.8 7.8 61 3.8 CALM 0 0 0 0 1015.5 1015.7 0.2
03/04:30pm 16.3 13.8 6.7 53 4.8 NW 9 13 5 7 1015.5 1015.7 0.2
03/04:00pm 17.2 14.5 5.5 46 5.7 WNW 9 15 5 8 1015.6 1015.8 0.0
03/03:30pm 18.0 14.3 6.2 46 5.9 NW 15 20 8 11 1015.7 1015.9 0.0
03/03:00pm 18.3 13.5 4.5 40 6.6 NW 19 26 10 14 1016.0 1016.2 0.0
03/02:30pm 18.5 13.8 5.0 41 6.6 WNW 19 26 10 14 1016.2 1016.4 0.0
03/02:00pm 18.4 15.2 8.4 52 5.2 NNW 15 20 8 11 1016.5 1016.7 0.0
03/01:30pm 17.7 13.9 7.4 51 5.2 NNW 17 22 9 12 1016.9 1017.1 0.0
03/01:00pm 18.3 14.7 8.3 52 5.2 NNW 17 22 9 12 1017.4 1017.6 0.0
03/12:30pm 17.4 13.1 6.9 50 5.3 NNW 19 26 10 14 1018.0 1018.2 0.0
03/12:00pm 17.3 13.5 7.6 53 4.9 NNW 17 26 9 14 1018.8 1019.0 0.0
03/11:30am 16.5 12.7 7.4 55 4.6 NW 17 20 9 11 1019.3 1019.5 0.0
03/11:00am 15.1 11.0 6.4 56 4.2 NNW 17 22 9 12 1019.9 1020.1 0.0
03/10:30am 14.4 11.6 8.6 68 2.9 N 13 15 7 8 1020.1 1020.3 0.0
03/10:00am 13.1 11.1 8.6 74 2.3 NNE 9 11 5 6 1020.5 1020.7 0.0
03/09:45am 12.5 10.9 8.8 78 1.9 N 7 9 4 5 1020.6 1020.8 0.0
03/09:30am 11.6 10.8 9.7 88 1.0 N 4 6 2 3 1020.7 1020.9 0.0
03/09:26am 11.3 10.1 9.6 89 0.9 N 6 9 3 5 1020.7 1020.9 0.0
03/09:00am 9.5 9.4 9.5 100 0.0 CALM 0 0 0 0 1020.8 1021.0 0.0
03/08:30am 7.3 5.5 7.3 100 0.0 SE 6 7 3 4 1020.8 1021.0 0.0
03/08:00am 5.3 2.5 5.3 100 0.0 ESE 9 11 5 6 1020.7 1020.9 0.0
03/07:30am 3.9 0.5 3.9 100 0.0 ESE 11 11 6 6 1020.6 1020.8 0.0
03/07:00am 3.6 0.5 3.6 100 0.0 ESE 9 11 5 6 1020.4 1020.6 0.0
03/06:30am 3.7 0.2 3.7 100 0.0 ESE 11 13 6 7 1020.4 1020.6 0.0
03/06:00am 3.8 0.4 3.8 100 0.0 ESE 11 13 6 7 1020.3 1020.5 0.0
03/05:30am 3.7 0.6 3.7 100 0.0 ESE 9 11 5 6 1020.4 1020.6 0.0
03/05:00am 4.0 1.0 4.0 100 0.0 ESE 9 11 5 6 1020.3 1020.5 0.0
03/04:30am 4.6 1.3 4.6 100 0.0 ESE 11 11 6 6 1020.5 1020.7 0.0
03/04:00am 5.1 2.7 5.1 100 0.0 ESE 7 9 4 5 1020.6 1020.8 0.0
03/03:30am 4.8 2.3 4.8 100 0.0 ESE 7 9 4 5 1020.7 1020.9 0.0
03/03:00am 5.1 2.3 5.1 100 0.0 ESE 9 9 5 5 1020.9 1021.1 0.0
03/02:30am 5.0 2.5 5.0 100 0.0 ESE 7 9 4 5 1021.2 1021.4 0.0
03/02:00am 5.3 2.9 5.3 100 0.0 ESE 7 9 4 5 1021.4 1021.6 0.0
03/01:30am 5.5 3.1 5.4 99 0.0 ESE 7 9 4 5 1021.7 1021.9 0.0
03/01:00am 6.3 4.1 6.3 100 0.0 SE 7 9 4 5 1021.9 1022.1 0.0
03/12:30am 5.8 3.5 5.7 99 0.0 ESE 7 7 4 4 1022.2 1022.4 0.0
03/12:00am 6.2 4.0 6.1 99 0.0 SE 7 9 4 5 1022.8 1023.0 0.0
 
Date/Time
EST
Temp
°C
App
Temp
°C
Dew
Point
°C
Rel
Hum
%
Delta-T
°C
Wind Press
QNH
hPa
Press
MSL
hPa
Rain since
9am
mm
Dir  Spd
km/h
Gust
km/h
Spd
kts
Gust
kts
02/11:30pm 6.7 4.8 6.6 99 0.0 ESE 6 9 3 5 1022.9 1023.1 0.0
02/11:00pm 6.3 3.7 6.2 99 0.0 ESE 9 11 5 6 1023.0 1023.2 0.0
02/10:30pm 6.0 3.3 5.6 97 0.2 SE 9 11 5 6 1023.3 1023.5 0.0
02/10:00pm 6.1 3.7 5.4 95 0.3 SE 7 9 4 5 1023.4 1023.6 0.0
02/09:30pm 6.3 3.8 4.9 91 0.6 ESE 7 9 4 5 1023.6 1023.8 0.0
02/09:00pm 7.0 4.9 5.6 91 0.6 ESE 6 7 3 4 1023.7 1023.9 0.0

Other formats

Comma delimited format used in spreadsheet applications
http://www.bom.gov.au/fwo/IDN60801/IDN60801.95706.axf

JavaScript Object Notation format (JSON) in row-major order
http://www.bom.gov.au/fwo/IDN60801/IDN60801.95706.json

Data quality

Most of these data are generated automatically and are frequently updated. Quality checks on data are not normally performed. It is possible for incorrect values to appear. Refer to information at About Latest Weather Observations and please check the disclaimer before using these data.